createdAt,value
2019-05-18T00:02:26.697Z,94084.04
2019-05-18T00:04:56.635Z,94084.55
2019-05-18T00:07:26.555Z,94091.09
2019-05-18T00:09:56.475Z,94089.13
2019-05-18T00:12:26.339Z,94083.58
2019-05-18T00:14:56.349Z,94089.45
2019-05-18T00:17:26.334Z,94087.11
2019-05-18T00:19:56.263Z,94084.54
2019-05-18T00:22:26.184Z,94088.64
2019-05-18T00:24:56.087Z,94086.87
2019-05-18T00:27:26.014Z,94086.95
2019-05-18T00:29:56.017Z,94084.36
2019-05-18T00:32:26.030Z,94084.27
2019-05-18T00:34:55.950Z,94088.22
2019-05-18T00:37:25.980Z,94086.27
2019-05-18T00:39:55.900Z,94092.95
2019-05-18T00:42:25.743Z,94080.47
2019-05-18T00:44:55.648Z,94079.41
2019-05-18T00:47:40.059Z,94080.83
2019-05-18T00:49:57.115Z,94079.45
2019-05-18T00:52:27.121Z,94078.53
2019-05-18T00:54:56.947Z,94073.07
2019-05-18T00:57:26.787Z,94069.63
2019-05-18T00:59:56.704Z,94072.02
2019-05-18T01:02:26.540Z,94067.89
2019-05-18T01:04:56.613Z,94070.05
2019-05-18T01:07:26.608Z,94065.05
2019-05-18T01:09:56.657Z,94071.91
2019-05-18T01:12:26.590Z,94074.56
2019-05-18T01:14:56.505Z,94073.36
2019-05-18T01:17:26.444Z,94067.52
2019-05-18T01:19:56.449Z,94070.03
2019-05-18T01:22:26.371Z,94071.47
2019-05-18T01:24:56.351Z,94069.93
2019-05-18T01:27:26.348Z,94071.75
2019-05-18T01:29:56.344Z,94065.56
2019-05-18T01:32:26.223Z,94066.40
2019-05-18T01:34:56.148Z,94067.62
2019-05-18T01:37:26.092Z,94066.96
2019-05-18T01:39:56.005Z,94065.55
2019-05-18T01:42:26.101Z,94063.13
2019-05-18T01:44:56.113Z,94062.68
2019-05-18T01:47:27.019Z,94060.71
2019-05-18T01:49:56.954Z,94054.47
2019-05-18T01:52:26.896Z,94050.44
2019-05-18T01:54:56.938Z,94052.12
2019-05-18T01:57:26.819Z,94045.25
2019-05-18T01:59:56.754Z,94047.72
2019-05-18T02:02:26.628Z,94051.72
2019-05-18T02:04:56.542Z,94054.80
2019-05-18T02:07:26.538Z,94051.16
2019-05-18T02:09:56.405Z,94051.50
2019-05-18T02:12:26.318Z,94049.20
2019-05-18T02:14:56.149Z,94047.42
2019-05-18T02:17:25.998Z,94041.35
2019-05-18T02:19:55.840Z,94046.20
2019-05-18T02:22:25.775Z,94040.19
2019-05-18T02:24:55.689Z,94041.80
2019-05-18T02:27:25.678Z,94037.33
2019-05-18T02:29:55.736Z,94034.05
2019-05-18T02:32:25.668Z,94041.25
2019-05-18T02:34:55.573Z,94041.51
2019-05-18T02:37:25.573Z,94038.75
2019-05-18T02:39:56.681Z,94038.89
2019-05-18T02:42:30.554Z,94035.43
2019-05-18T02:44:58.324Z,94039.11
2019-05-18T02:47:28.340Z,94042.85
2019-05-18T02:49:58.237Z,94039.13
2019-05-18T02:52:28.173Z,94045.44
2019-05-18T02:54:58.028Z,94041.13
2019-05-18T02:57:27.999Z,94040.44
2019-05-18T02:59:57.918Z,94038.85
2019-05-18T03:02:27.816Z,94037.34
2019-05-18T03:04:58.896Z,94034.50
2019-05-18T03:07:28.890Z,94033.98
2019-05-18T03:09:58.711Z,94031.66
2019-05-18T03:12:28.723Z,94033.16
2019-05-18T03:14:58.711Z,94037.18
2019-05-18T03:17:28.718Z,94039.22
2019-05-18T03:19:58.694Z,94036.97
2019-05-18T03:22:28.604Z,94042.77
2019-05-18T03:24:58.595Z,94042.83
2019-05-18T03:27:28.489Z,94042.93
2019-05-18T03:29:58.392Z,94042.55
2019-05-18T03:32:28.368Z,94038.55
2019-05-18T03:34:58.390Z,94040.00
2019-05-18T03:37:28.248Z,94044.16
2019-05-18T03:39:59.302Z,94050.61
2019-05-18T03:42:29.161Z,94054.02
2019-05-18T03:44:59.287Z,94050.20
2019-05-18T03:47:29.261Z,94042.93
2019-05-18T03:50:00.389Z,94043.09
2019-05-18T03:52:30.386Z,94049.23
2019-05-18T03:55:00.271Z,94046.09
2019-05-18T03:57:30.180Z,94051.88
2019-05-18T04:00:00.418Z,94056.64
2019-05-18T04:02:30.262Z,94059.68
2019-05-18T04:05:00.177Z,94056.47
2019-05-18T04:07:30.046Z,94056.65
2019-05-18T04:09:59.964Z,94055.86
2019-05-18T04:12:29.856Z,94060.28
2019-05-18T04:14:59.761Z,94062.50
2019-05-18T04:17:29.684Z,94068.25
2019-05-18T04:19:59.601Z,94070.21
2019-05-18T04:22:29.457Z,94067.41
2019-05-18T04:24:59.630Z,94070.09
2019-05-18T04:27:29.548Z,94067.74
2019-05-18T04:29:59.514Z,94071.55
2019-05-18T04:32:29.369Z,94073.05
2019-05-18T04:34:59.219Z,94071.70
2019-05-18T04:37:29.045Z,94073.33
2019-05-18T04:39:58.882Z,94083.05
2019-05-18T04:42:28.868Z,94085.94
2019-05-18T04:44:58.690Z,94089.13
2019-05-18T04:47:28.672Z,94083.71
2019-05-18T04:50:04.984Z,94083.48
2019-05-18T04:52:30.053Z,94087.52
2019-05-18T04:54:59.902Z,94084.27
2019-05-18T04:57:29.898Z,94087.16
2019-05-18T04:59:59.743Z,94084.94
2019-05-18T05:02:29.643Z,94077.98
2019-05-18T05:04:59.636Z,94078.03
2019-05-18T05:07:29.491Z,94079.41
2019-05-18T05:09:59.321Z,94083.77
2019-05-18T05:12:29.327Z,94090.20
2019-05-18T05:15:00.724Z,94089.62
2019-05-18T05:17:30.623Z,94086.87
2019-05-18T05:20:00.599Z,94086.67
2019-05-18T05:22:30.495Z,94089.45
2019-05-18T05:25:00.512Z,94088.51
2019-05-18T05:27:30.796Z,94089.92
2019-05-18T05:30:00.770Z,94087.88
2019-05-18T05:32:30.787Z,94091.86
2019-05-18T05:35:01.866Z,94091.30
2019-05-18T05:37:31.760Z,94088.84
2019-05-18T05:40:01.672Z,94093.38
2019-05-18T05:42:31.599Z,94090.41
2019-05-18T05:45:01.495Z,94087.20
2019-05-18T05:47:31.362Z,94096.86
2019-05-18T05:50:01.249Z,94099.23
2019-05-18T05:52:31.204Z,94105.87
2019-05-18T05:55:01.177Z,94103.09
2019-05-18T05:57:31.067Z,94101.09
2019-05-18T06:00:01.040Z,94108.16
2019-05-18T06:02:30.895Z,94105.91
2019-05-18T06:05:00.960Z,94101.89
2019-05-18T06:07:33.427Z,94096.23
2019-05-18T06:10:03.408Z,94105.02
2019-05-18T06:12:33.326Z,94102.90
2019-05-18T06:15:03.261Z,94099.40
2019-05-18T06:17:33.152Z,94104.23
2019-05-18T06:20:03.171Z,94102.25
2019-05-18T06:22:33.003Z,94098.64
2019-05-18T06:25:05.082Z,94099.73
2019-05-18T06:27:34.955Z,94105.59
2019-05-18T06:30:05.873Z,94108.21
2019-05-18T06:32:35.766Z,94109.28
2019-05-18T06:35:05.987Z,94098.91
2019-05-18T06:37:37.000Z,94105.82
2019-05-18T06:40:07.313Z,94098.14
2019-05-18T06:42:37.248Z,94096.81
2019-05-18T06:45:08.156Z,94096.97
2019-05-18T06:47:38.130Z,94101.44
2019-05-18T06:50:11.946Z,94102.52
2019-05-18T06:52:40.144Z,94107.84
2019-05-18T06:55:11.632Z,94103.02
2019-05-18T06:57:41.950Z,94107.33
2019-05-18T07:00:13.779Z,94105.56
2019-05-18T07:02:43.759Z,94096.04
2019-05-18T07:05:13.872Z,94097.98
2019-05-18T07:07:43.780Z,94097.84
2019-05-18T07:10:13.961Z,94102.91
2019-05-18T07:12:44.319Z,94103.86
2019-05-18T07:15:15.298Z,94104.44
2019-05-18T07:17:46.290Z,94103.27
2019-05-18T07:20:16.507Z,94101.78
2019-05-18T07:22:46.419Z,94100.02
2019-05-18T07:25:17.532Z,94095.55
2019-05-18T07:27:48.551Z,94100.27
2019-05-18T07:30:19.707Z,94101.56
2019-05-18T07:32:49.701Z,94096.64
2019-05-18T07:35:19.976Z,94093.31
2019-05-18T07:37:49.918Z,94092.17
2019-05-18T07:40:21.009Z,94091.75
2019-05-18T07:42:51.013Z,94090.48
2019-05-18T07:45:21.007Z,94086.13
2019-05-18T07:47:50.936Z,94081.97
2019-05-18T07:50:21.251Z,94086.62
2019-05-18T07:52:51.193Z,94081.48
2019-05-18T07:55:21.176Z,94083.84
2019-05-18T07:57:51.100Z,94092.10
2019-05-18T08:00:22.388Z,94084.83
2019-05-18T08:02:52.343Z,94085.09
2019-05-18T08:05:22.333Z,94091.84
2019-05-18T08:07:52.275Z,94093.66
2019-05-18T08:10:35.083Z,94086.43
2019-05-18T08:13:05.390Z,94076.55
2019-05-18T08:15:35.889Z,94082.22
2019-05-18T08:18:06.011Z,94080.61
2019-05-18T08:20:39.157Z,94077.50
2019-05-18T08:23:09.074Z,94077.69
2019-05-18T08:25:39.059Z,94079.14
2019-05-18T08:28:09.087Z,94074.50
2019-05-18T08:30:39.024Z,94081.95
2019-05-18T08:33:10.076Z,94085.77
2019-05-18T08:35:40.086Z,94081.73
2019-05-18T08:38:10.139Z,94085.55
2019-05-18T08:40:40.161Z,94085.04
2019-05-18T08:43:10.156Z,94081.27
2019-05-18T08:45:40.188Z,94079.17
2019-05-18T08:48:10.122Z,94080.06
2019-05-18T08:50:41.252Z,94079.51
2019-05-18T08:53:11.285Z,94077.72
2019-05-18T08:55:41.196Z,94075.25
2019-05-18T08:58:11.034Z,94062.95
2019-05-18T09:00:40.963Z,94059.09
2019-05-18T09:03:10.872Z,94063.69
2019-05-18T09:05:41.409Z,94069.61
2019-05-18T09:08:11.434Z,94066.48
2019-05-18T09:10:41.414Z,94063.30
2019-05-18T09:13:11.395Z,94066.28
2019-05-18T09:15:41.359Z,94059.62
2019-05-18T09:18:11.382Z,94066.20
2019-05-18T09:20:41.373Z,94061.58
2019-05-18T09:23:11.315Z,94061.67
2019-05-18T09:25:41.298Z,94064.18
2019-05-18T09:28:11.245Z,94067.70
2019-05-18T09:30:41.485Z,94063.98
2019-05-18T09:33:11.436Z,94064.09
2019-05-18T09:35:41.403Z,94069.17
2019-05-18T09:38:11.311Z,94066.26
2019-05-18T09:40:41.243Z,94063.14
2019-05-18T09:43:11.406Z,94059.09
2019-05-18T09:45:41.325Z,94059.81
2019-05-18T09:48:11.479Z,94063.76
2019-05-18T09:50:41.485Z,94062.83
2019-05-18T09:53:12.639Z,94065.23
2019-05-18T09:55:42.720Z,94064.23
2019-05-18T09:58:12.658Z,94060.98
2019-05-18T10:00:42.707Z,94061.38
2019-05-18T10:03:12.639Z,94059.74
2019-05-18T10:05:42.638Z,94060.05
2019-05-18T10:08:13.729Z,94059.79
2019-05-18T10:10:43.702Z,94057.73
2019-05-18T10:13:14.625Z,94055.68
2019-05-18T10:15:44.486Z,94054.00
2019-05-18T10:18:14.340Z,94054.73
2019-05-18T10:20:44.301Z,94055.81
2019-05-18T10:23:14.285Z,94058.13
2019-05-18T10:25:44.245Z,94055.58
2019-05-18T10:28:14.191Z,94054.77
2019-05-18T10:30:44.224Z,94046.48
2019-05-18T10:33:14.327Z,94051.59
2019-05-18T10:35:44.377Z,94054.53
2019-05-18T10:38:14.368Z,94052.45
2019-05-18T10:40:44.387Z,94049.80
2019-05-18T10:43:14.361Z,94054.00
2019-05-18T10:45:45.267Z,94048.67
2019-05-18T10:48:15.629Z,94044.89
2019-05-18T10:50:45.648Z,94046.78
2019-05-18T10:53:27.764Z,94045.14
2019-05-18T10:55:47.763Z,94047.75
2019-05-18T10:58:17.675Z,94045.53
2019-05-18T11:00:48.663Z,94040.43
2019-05-18T11:03:18.698Z,94033.53
2019-05-18T11:05:48.722Z,94037.30
2019-05-18T11:08:18.728Z,94028.99
2019-05-18T11:10:48.883Z,94038.27
2019-05-18T11:13:18.787Z,94025.87
2019-05-18T11:15:49.705Z,94028.32
2019-05-18T11:18:19.697Z,94022.66
2019-05-18T11:20:49.802Z,94022.19
2019-05-18T11:23:19.703Z,94025.28
2019-05-18T11:25:49.746Z,94023.65
2019-05-18T11:28:19.815Z,94018.14
2019-05-18T11:30:49.869Z,94009.11
2019-05-18T11:33:19.909Z,94015.94
2019-05-18T11:35:50.123Z,94014.52
2019-05-18T11:38:22.494Z,94007.94
2019-05-18T11:40:52.839Z,94010.17
2019-05-18T11:43:22.965Z,94007.56
2019-05-18T11:45:52.982Z,94006.92
2019-05-18T11:48:23.083Z,94013.84
2019-05-18T11:50:53.177Z,94018.30
2019-05-18T11:53:23.245Z,94019.39
2019-05-18T11:55:53.143Z,94011.38
2019-05-18T11:58:23.122Z,94016.02
2019-05-18T12:00:53.307Z,94014.03
2019-05-18T12:03:23.362Z,94013.11
2019-05-18T12:05:53.423Z,94008.64
2019-05-18T12:08:23.420Z,94014.52
2019-05-18T12:10:56.125Z,94016.35
2019-05-18T12:13:25.390Z,94011.06
2019-05-18T12:15:55.562Z,94003.99
2019-05-18T12:18:25.527Z,94008.05
2019-05-18T12:20:55.376Z,94002.13
2019-05-18T12:23:25.270Z,93999.81
2019-05-18T12:25:55.221Z,94002.48
2019-05-18T12:28:25.236Z,93997.04
2019-05-18T12:30:55.217Z,93997.40
2019-05-18T12:33:25.312Z,93995.57
2019-05-18T12:35:55.336Z,93995.05
2019-05-18T12:38:25.172Z,93991.81
2019-05-18T12:40:55.429Z,93986.48
2019-05-18T12:43:25.479Z,93989.81
2019-05-18T12:45:55.410Z,93986.72
2019-05-18T12:48:25.434Z,93988.58
2019-05-18T12:50:55.558Z,93982.58
2019-05-18T12:53:25.797Z,93984.17
2019-05-18T12:55:55.740Z,93984.05
2019-05-18T12:58:25.672Z,93979.89
2019-05-18T13:00:55.679Z,93983.16
2019-05-18T13:03:25.662Z,93980.68
2019-05-18T13:05:55.659Z,93979.34
2019-05-18T13:08:25.567Z,93978.92
2019-05-18T13:10:55.548Z,93979.46
2019-05-18T13:13:25.558Z,93972.09
2019-05-18T13:15:55.503Z,93974.02
2019-05-18T13:18:28.540Z,93971.77
2019-05-18T13:20:58.591Z,93973.84
2019-05-18T13:23:28.539Z,93971.67
2019-05-18T13:25:58.530Z,93963.28
2019-05-18T13:28:28.525Z,93965.94
2019-05-18T13:30:58.533Z,93965.94
2019-05-18T13:33:28.586Z,93956.59
2019-05-18T13:35:58.563Z,93955.22
2019-05-18T13:38:28.559Z,93953.30
2019-05-18T13:40:58.583Z,93959.28
2019-05-18T13:43:28.855Z,93961.59
2019-05-18T13:45:58.741Z,93953.67
2019-05-18T13:48:28.725Z,93952.30
2019-05-18T13:50:58.764Z,93954.13
2019-05-18T13:53:28.814Z,93950.18
2019-05-18T13:55:58.760Z,93948.17
2019-05-18T13:58:28.645Z,93950.33
2019-05-18T14:00:58.568Z,93946.42
2019-05-18T14:03:28.509Z,93945.96
2019-05-18T14:05:58.379Z,93945.86
2019-05-18T14:08:28.446Z,93944.59
2019-05-18T14:10:58.387Z,93940.56
2019-05-18T14:13:28.296Z,93936.75
2019-05-18T14:15:58.216Z,93939.83
2019-05-18T14:18:28.201Z,93939.25
2019-05-18T14:20:58.048Z,93938.42
2019-05-18T14:23:28.162Z,93934.81
2019-05-18T14:25:58.093Z,93930.88
2019-05-18T14:28:31.263Z,93931.78
2019-05-18T14:31:04.165Z,93930.42
2019-05-18T14:33:34.331Z,93930.34
2019-05-18T14:36:07.249Z,93929.41
2019-05-18T14:38:37.427Z,93919.85
2019-05-18T14:41:07.517Z,93928.02
2019-05-18T14:43:37.477Z,93924.73
2019-05-18T14:46:07.590Z,93923.47
2019-05-18T14:48:37.418Z,93927.02
2019-05-18T14:51:07.421Z,93929.77
2019-05-18T14:53:37.370Z,93928.92
2019-05-18T14:56:07.529Z,93928.08
2019-05-18T14:58:37.483Z,93930.47
2019-05-18T15:01:07.631Z,93931.89
2019-05-18T15:03:37.526Z,93927.48
2019-05-18T15:06:07.511Z,93933.81
2019-05-18T15:08:37.414Z,93924.30
2019-05-18T15:11:07.435Z,93930.16
2019-05-18T15:13:37.426Z,93923.71
2019-05-18T15:16:07.396Z,93919.23
2019-05-18T15:18:37.231Z,93919.22
2019-05-18T15:21:07.196Z,93921.63
2019-05-18T15:23:37.645Z,93912.28
2019-05-18T15:26:07.548Z,93910.95
2019-05-18T15:28:37.583Z,93906.38
2019-05-18T15:31:07.592Z,93905.38
2019-05-18T15:33:37.588Z,93902.89
2019-05-18T15:36:07.623Z,93898.77
2019-05-18T15:38:37.489Z,93897.83
2019-05-18T15:41:07.397Z,93899.35
2019-05-18T15:43:37.398Z,93897.28
2019-05-18T15:46:08.401Z,93901.50
2019-05-18T15:48:38.427Z,93898.35
2019-05-18T15:51:08.410Z,93898.93
2019-05-18T15:53:38.455Z,93887.97
2019-05-18T15:56:08.524Z,93895.13
2019-05-18T15:58:38.533Z,93897.49
2019-05-18T16:01:08.483Z,93897.20
2019-05-18T16:03:38.427Z,93886.97
2019-05-18T16:06:08.784Z,93885.88
2019-05-18T16:08:38.620Z,93890.59
2019-05-18T16:11:08.651Z,93886.86
2019-05-18T16:13:38.780Z,93888.53
2019-05-18T16:16:08.900Z,93879.29
2019-05-18T16:18:38.805Z,93880.72
2019-05-18T16:21:08.721Z,93888.36
2019-05-18T16:23:38.740Z,93884.30
2019-05-18T16:26:20.709Z,93879.02
2019-05-18T16:28:40.342Z,93881.43
2019-05-18T16:31:10.271Z,93884.69
2019-05-18T16:36:08.653Z,93884.52
2019-05-18T16:38:38.496Z,93880.86
2019-05-18T16:41:08.404Z,93883.59
2019-05-18T16:43:38.411Z,93884.86
2019-05-18T16:46:08.385Z,93878.53
2019-05-18T16:48:39.525Z,93887.45
2019-05-18T16:51:10.074Z,93879.41
2019-05-18T16:53:39.957Z,93878.19
2019-05-18T16:56:09.841Z,93879.36
2019-05-18T16:58:39.741Z,93880.67
2019-05-18T17:01:10.739Z,93877.79
2019-05-18T17:03:40.660Z,93884.34
2019-05-18T17:06:10.871Z,93871.52
2019-05-18T17:08:40.774Z,93886.91
2019-05-18T17:11:10.757Z,93887.31
2019-05-18T17:13:40.750Z,93881.92
2019-05-18T17:16:10.736Z,93888.59
2019-05-18T17:18:40.650Z,93884.58
2019-05-18T17:21:10.572Z,93887.13
2019-05-18T17:23:40.502Z,93887.77
2019-05-18T17:26:10.403Z,93888.66
2019-05-18T17:28:40.265Z,93884.34
2019-05-18T17:31:10.312Z,93884.38
2019-05-18T17:33:40.242Z,93888.28
2019-05-18T17:36:10.084Z,93884.26
2019-05-18T17:38:40.014Z,93884.19
2019-05-18T17:41:09.935Z,93886.78
2019-05-18T17:43:39.960Z,93893.41
2019-05-18T17:46:09.809Z,93891.34
2019-05-18T17:48:39.832Z,93896.23
2019-05-18T17:51:10.562Z,93892.77
2019-05-18T17:53:40.541Z,93887.98
2019-05-18T17:56:10.461Z,93891.36
2019-05-18T17:58:40.465Z,93891.95
2019-05-18T18:01:10.347Z,93889.82
2019-05-18T18:03:40.229Z,93896.98
2019-05-18T18:06:10.245Z,93892.21
2019-05-18T18:08:40.237Z,93895.11
2019-05-18T18:11:11.936Z,93897.42
2019-05-18T18:13:41.826Z,93896.94
2019-05-18T18:16:11.752Z,93897.47
2019-05-18T18:18:41.923Z,93900.55
2019-05-18T18:21:12.000Z,93905.66
2019-05-18T18:23:42.080Z,93903.68
2019-05-18T18:26:11.984Z,93909.13
2019-05-18T18:28:43.093Z,93904.52
2019-05-18T18:31:13.083Z,93901.98
2019-05-18T18:33:43.028Z,93908.70
2019-05-18T18:36:13.063Z,93913.28
2019-05-18T18:38:43.014Z,93915.41
2019-05-18T18:41:12.974Z,93912.59
2019-05-18T18:43:42.959Z,93913.67
2019-05-18T18:46:14.049Z,93911.95
2019-05-18T18:48:43.902Z,93910.96
2019-05-18T18:51:13.807Z,93916.55
2019-05-18T18:53:43.699Z,93919.20
2019-05-18T18:56:13.622Z,93919.80
2019-05-18T18:58:43.621Z,93920.92
2019-05-18T19:01:13.606Z,93921.25
2019-05-18T19:03:43.597Z,93925.44
2019-05-18T19:06:13.552Z,93933.80
2019-05-18T19:08:43.372Z,93928.97
2019-05-18T19:11:13.385Z,93931.88
2019-05-18T19:13:45.726Z,93935.03
2019-05-18T19:16:15.052Z,93934.57
2019-05-18T19:18:45.069Z,93942.19
2019-05-18T19:21:14.989Z,93945.14
2019-05-18T19:23:45.029Z,93945.55
2019-05-18T19:26:16.023Z,93948.78
2019-05-18T19:28:45.903Z,93959.53
2019-05-18T19:31:15.890Z,93952.38
2019-05-18T19:33:45.715Z,93954.52
2019-05-18T19:36:15.621Z,93956.63
2019-05-18T19:38:45.606Z,93955.90
2019-05-18T19:41:15.749Z,93961.57
2019-05-18T19:43:46.263Z,93957.95
2019-05-18T19:46:16.181Z,93954.07
2019-05-18T19:48:46.080Z,93960.84
2019-05-18T19:51:16.275Z,93960.60
2019-05-18T19:53:46.187Z,93956.22
2019-05-18T19:56:16.087Z,93960.09
2019-05-18T19:58:45.950Z,93955.16
2019-05-18T20:01:15.843Z,93963.17
2019-05-18T20:03:45.750Z,93962.16
2019-05-18T20:06:15.665Z,93964.73
2019-05-18T20:08:45.577Z,93963.43
2019-05-18T20:11:15.416Z,93963.67
2019-05-18T20:13:45.242Z,93957.71
2019-05-18T20:16:15.216Z,93964.38
2019-05-18T20:18:45.140Z,93956.86
2019-05-18T20:21:15.039Z,93963.85
2019-05-18T20:23:44.896Z,93955.83
2019-05-18T20:26:14.720Z,93954.27
2019-05-18T20:28:44.657Z,93955.05
2019-05-18T20:31:14.572Z,93955.58
2019-05-18T20:33:44.541Z,93955.56
2019-05-18T20:36:14.463Z,93954.75
2019-05-18T20:38:44.378Z,93959.12
2019-05-18T20:41:14.291Z,93957.51
2019-05-18T20:43:44.225Z,93955.72
2019-05-18T20:46:14.166Z,93953.86
2019-05-18T20:48:44.026Z,93952.51
2019-05-18T20:51:14.028Z,93952.21
2019-05-18T20:53:45.088Z,93950.11
2019-05-18T20:56:15.013Z,93953.68
2019-05-18T20:58:45.091Z,93953.06
2019-05-18T21:01:15.004Z,93955.31
2019-05-18T21:03:44.923Z,93954.25
2019-05-18T21:06:14.821Z,93948.03
2019-05-18T21:08:44.722Z,93948.27
2019-05-18T21:11:14.685Z,93958.63
2019-05-18T21:13:44.660Z,93957.59
2019-05-18T21:16:14.651Z,93952.16
2019-05-18T21:18:44.600Z,93951.12
2019-05-18T21:21:14.419Z,93957.83
2019-05-18T21:23:44.384Z,93950.32
2019-05-18T21:26:14.211Z,93953.12
2019-05-18T21:28:56.195Z,93952.29
2019-05-18T21:31:15.648Z,93952.02
2019-05-18T21:33:45.468Z,93952.23
2019-05-18T21:36:16.766Z,93950.16
2019-05-18T21:38:46.764Z,93954.48
2019-05-18T21:41:16.679Z,93948.97
2019-05-18T21:43:46.570Z,93949.65
2019-05-18T21:46:16.415Z,93955.28
2019-05-18T21:48:46.412Z,93943.37
2019-05-18T21:51:16.313Z,93942.24
2019-05-18T21:53:46.320Z,93947.76
2019-05-18T21:56:16.173Z,93946.35
2019-05-18T21:58:46.055Z,93943.36
2019-05-18T22:01:16.039Z,93942.31
2019-05-18T22:03:48.326Z,93942.72
2019-05-18T22:06:18.909Z,93935.70
2019-05-18T22:08:48.925Z,93937.74
2019-05-18T22:11:19.904Z,93935.84
2019-05-18T22:13:49.818Z,93927.69
2019-05-18T22:16:19.719Z,93938.95
2019-05-18T22:18:49.723Z,93932.55
2019-05-18T22:21:19.565Z,93931.44
2019-05-18T22:23:49.590Z,93930.11
2019-05-18T22:26:19.566Z,93934.75
2019-05-18T22:28:49.442Z,93927.81
2019-05-18T22:31:19.793Z,93928.78
2019-05-18T22:33:49.845Z,93925.20
2019-05-18T22:36:19.684Z,93920.29
2019-05-18T22:38:50.697Z,93917.95
2019-05-18T22:41:20.491Z,93922.86
2019-05-18T22:43:50.363Z,93919.47
2019-05-18T22:46:20.341Z,93918.19
2019-05-18T22:48:50.306Z,93924.51
2019-05-18T22:51:20.282Z,93913.67
2019-05-18T22:53:50.237Z,93909.97
2019-05-18T22:56:20.165Z,93906.86
2019-05-18T22:58:50.099Z,93907.20
2019-05-18T23:01:20.096Z,93911.45
2019-05-18T23:03:51.738Z,93907.20
2019-05-18T23:06:21.965Z,93906.41
2019-05-18T23:08:51.835Z,93902.29
2019-05-18T23:11:21.673Z,93893.84
2019-05-18T23:13:52.606Z,93896.14
2019-05-18T23:16:22.532Z,93902.14
2019-05-18T23:18:56.938Z,93901.09
2019-05-18T23:21:24.110Z,93902.75
2019-05-18T23:23:54.107Z,93894.30
2019-05-18T23:26:23.965Z,93902.01
2019-05-18T23:28:53.909Z,93892.33
2019-05-18T23:31:23.847Z,93894.90
2019-05-18T23:33:54.836Z,93897.73
2019-05-18T23:36:24.774Z,93893.14
2019-05-18T23:38:54.698Z,93891.77
2019-05-18T23:41:24.591Z,93884.84
2019-05-18T23:43:54.478Z,93886.91
2019-05-18T23:46:24.400Z,93882.88
2019-05-18T23:48:54.224Z,93887.23
2019-05-18T23:51:24.161Z,93886.53
2019-05-18T23:53:54.051Z,93882.25
2019-05-18T23:56:23.967Z,93889.30
2019-05-18T23:58:53.940Z,93883.76
